createdAt,value
2018-12-02T00:00:28.209Z,98922.30
2018-12-02T00:03:02.908Z,98925.34
2018-12-02T00:05:36.278Z,98922.22
2018-12-02T00:08:09.800Z,98914.15
2018-12-02T00:10:43.938Z,98922.28
2018-12-02T00:13:16.902Z,98915.62
2018-12-02T00:15:51.420Z,98912.74
2018-12-02T00:18:26.175Z,98904.37
2018-12-02T00:21:02.723Z,98907.73
2018-12-02T00:23:37.536Z,98896.92
2018-12-02T00:26:11.948Z,98895.05
2018-12-02T00:28:45.686Z,98887.08
2018-12-02T00:31:24.032Z,98890.23
2018-12-02T00:33:58.001Z,98887.48
2018-12-02T00:36:31.079Z,98884.78
2018-12-02T00:39:06.766Z,98885.27
2018-12-02T00:41:39.678Z,98888.62
2018-12-02T00:44:12.567Z,98881.49
2018-12-02T00:46:46.644Z,98882.23
2018-12-02T00:49:20.150Z,98872.87
2018-12-02T00:51:53.281Z,98872.73
2018-12-02T00:54:28.838Z,98867.55
2018-12-02T00:57:01.953Z,98853.98
2018-12-02T00:59:36.159Z,98856.31
2018-12-02T01:02:11.398Z,98847.69
2018-12-02T01:04:44.494Z,98846.11
2018-12-02T01:07:17.544Z,98838.19
2018-12-02T01:09:51.890Z,98837.06
2018-12-02T01:12:24.952Z,98834.72
2018-12-02T01:14:59.025Z,98825.54
2018-12-02T01:17:33.704Z,98827.30
2018-12-02T01:20:20.937Z,98819.25
2018-12-02T01:22:54.905Z,98816.00
2018-12-02T01:25:28.399Z,98816.77
2018-12-02T01:28:01.444Z,98814.94
2018-12-02T01:30:35.162Z,98810.28
2018-12-02T01:33:10.500Z,98807.88
2018-12-02T01:35:43.580Z,98793.70
2018-12-02T01:38:17.488Z,98798.38
2018-12-02T01:40:54.269Z,98805.80
2018-12-02T01:43:27.289Z,98811.73
2018-12-02T01:46:00.235Z,98799.65
2018-12-02T01:48:33.941Z,98804.86
2018-12-02T01:51:07.420Z,98803.19
2018-12-02T01:53:40.657Z,98797.97
2018-12-02T01:56:15.404Z,98793.30
2018-12-02T01:58:48.292Z,98789.16
2018-12-02T02:01:21.892Z,98781.41
2018-12-02T02:03:56.146Z,98779.44
2018-12-02T02:06:29.202Z,98773.13
2018-12-02T02:09:09.419Z,98778.06
2018-12-02T02:11:42.600Z,98766.05
2018-12-02T02:14:15.892Z,98766.79
2018-12-02T02:16:49.426Z,98754.84
2018-12-02T02:19:22.444Z,98754.47
2018-12-02T02:21:56.004Z,98743.13
2018-12-02T02:24:29.421Z,98742.02
2018-12-02T02:27:02.388Z,98743.38
2018-12-02T02:29:37.012Z,98740.34
2018-12-02T02:32:11.308Z,98736.09
2018-12-02T02:37:23.156Z,98728.73
2018-12-02T02:39:56.972Z,98726.88
2018-12-02T02:42:29.880Z,98720.61
2018-12-02T02:45:05.100Z,98709.73
2018-12-02T02:47:38.561Z,98709.40
2018-12-02T02:50:21.235Z,98707.45
2018-12-02T02:53:00.137Z,98706.52
2018-12-02T02:55:33.135Z,98702.02
2018-12-02T02:58:06.124Z,98705.16
2018-12-02T03:00:39.129Z,98694.16
2018-12-02T03:03:11.984Z,98696.08
2018-12-02T03:05:45.046Z,98694.12
2018-12-02T03:08:18.621Z,98689.28
2018-12-02T03:10:51.672Z,98684.80
2018-12-02T03:13:24.606Z,98685.06
2018-12-02T03:15:58.000Z,98679.66
2018-12-02T03:18:31.584Z,98682.95
2018-12-02T03:21:04.797Z,98676.13
2018-12-02T03:23:37.982Z,98676.92
2018-12-02T03:26:11.284Z,98681.83
2018-12-02T03:28:44.190Z,98672.88
2018-12-02T03:31:18.657Z,98670.95
2018-12-02T03:33:51.762Z,98669.42
2018-12-02T03:36:24.788Z,98660.04
2018-12-02T03:38:58.179Z,98659.20
2018-12-02T03:41:31.801Z,98657.35
2018-12-02T03:44:04.864Z,98649.92
2018-12-02T03:46:38.128Z,98644.79
2018-12-02T03:49:11.180Z,98637.23
2018-12-02T03:51:44.176Z,98640.48
2018-12-02T03:54:19.685Z,98627.13
2018-12-02T03:56:52.524Z,98631.03
2018-12-02T03:59:25.560Z,98631.17
2018-12-02T04:01:58.944Z,98622.13
2018-12-02T04:04:31.961Z,98617.19
2018-12-02T04:07:05.092Z,98620.01
2018-12-02T04:09:38.813Z,98615.05
2018-12-02T04:12:11.712Z,98602.34
2018-12-02T04:14:44.712Z,98605.86
2018-12-02T04:17:18.625Z,98603.45
2018-12-02T04:19:51.692Z,98594.50
2018-12-02T04:22:24.597Z,98595.34
2018-12-02T04:24:58.114Z,98586.95
2018-12-02T04:27:31.054Z,98581.06
2018-12-02T04:30:10.586Z,98581.40
2018-12-02T04:32:44.815Z,98583.23
2018-12-02T04:35:20.782Z,98586.95
2018-12-02T04:37:54.459Z,98583.23
2018-12-02T04:40:27.456Z,98574.36
2018-12-02T04:43:00.516Z,98566.73
2018-12-02T04:45:34.058Z,98569.85
2018-12-02T04:48:07.150Z,98565.94
2018-12-02T04:50:40.230Z,98559.28
2018-12-02T04:53:13.634Z,98551.36
2018-12-02T04:55:46.635Z,98549.70
2018-12-02T04:58:19.934Z,98543.54
2018-12-02T05:00:53.397Z,98533.66
2018-12-02T05:03:26.445Z,98533.83
2018-12-02T05:05:59.393Z,98527.73
2018-12-02T05:08:33.035Z,98524.48
2018-12-02T05:11:06.439Z,98517.39
2018-12-02T05:13:39.434Z,98514.97
2018-12-02T05:16:12.765Z,98508.58
2018-12-02T05:18:45.797Z,98512.92
2018-12-02T05:21:18.765Z,98507.15
2018-12-02T05:23:52.385Z,98507.28
2018-12-02T05:26:26.341Z,98511.03
2018-12-02T05:28:59.370Z,98510.06
2018-12-02T05:31:32.311Z,98505.33
2018-12-02T05:34:05.609Z,98496.31
2018-12-02T05:36:38.777Z,98493.46
2018-12-02T05:39:11.923Z,98479.38
2018-12-02T05:41:50.624Z,98476.06
2018-12-02T05:44:23.619Z,98472.02
2018-12-02T05:46:57.207Z,98468.27
2018-12-02T05:49:30.670Z,98453.79
2018-12-02T05:52:04.377Z,98450.05
2018-12-02T05:54:37.712Z,98446.83
2018-12-02T05:57:10.749Z,98446.56
2018-12-02T05:59:43.984Z,98440.33
2018-12-02T06:02:19.929Z,98438.94
2018-12-02T06:04:56.068Z,98445.90
2018-12-02T06:07:29.022Z,98439.77
2018-12-02T06:10:02.468Z,98434.96
2018-12-02T06:12:35.421Z,98436.91
2018-12-02T06:15:14.883Z,98439.47
2018-12-02T06:17:48.225Z,98441.06
2018-12-02T06:20:26.097Z,98435.48
2018-12-02T06:22:59.788Z,98435.45
2018-12-02T06:25:32.855Z,98430.72
2018-12-02T06:28:06.847Z,98442.05
2018-12-02T06:30:39.788Z,98437.64
2018-12-02T06:33:13.533Z,98432.11
2018-12-02T06:35:47.846Z,98427.50
2018-12-02T06:38:20.818Z,98429.29
2018-12-02T06:40:55.871Z,98431.94
2018-12-02T06:43:28.871Z,98435.92
2018-12-02T06:46:01.835Z,98434.23
2018-12-02T06:48:36.376Z,98421.56
2018-12-02T06:51:10.217Z,98428.22
2018-12-02T06:53:43.958Z,98436.05
2018-12-02T06:56:30.841Z,98425.47
2018-12-02T06:59:45.254Z,98421.59
2018-12-02T07:02:56.935Z,98424.34
2018-12-02T07:05:36.371Z,98412.94
2018-12-02T07:08:09.426Z,98417.05
2018-12-02T07:10:44.980Z,98412.00
2018-12-02T07:13:19.641Z,98411.11
2018-12-02T07:15:53.740Z,98398.88
2018-12-02T07:18:31.744Z,98412.50
2018-12-02T07:21:14.257Z,98412.33
2018-12-02T07:23:53.729Z,98414.39
2018-12-02T07:26:31.149Z,98415.58
2018-12-02T07:29:05.336Z,98409.41
2018-12-02T07:31:38.809Z,98405.53
2018-12-02T07:34:13.072Z,98407.38
2018-12-02T07:36:46.841Z,98408.15
2018-12-02T07:40:14.389Z,98414.15
2018-12-02T07:42:48.062Z,98407.16
2018-12-02T07:45:22.144Z,98401.84
2018-12-02T07:47:55.977Z,98408.61
2018-12-02T07:50:28.933Z,98408.17
2018-12-02T07:53:01.867Z,98406.02
2018-12-02T07:55:38.026Z,98400.63
2018-12-02T07:58:16.950Z,98402.66
2018-12-02T08:00:50.664Z,98398.38
2018-12-02T08:03:25.129Z,98392.36
2018-12-02T08:05:58.160Z,98393.55
2018-12-02T08:08:33.426Z,98386.45
2018-12-02T08:11:09.002Z,98398.98
2018-12-02T08:13:43.036Z,98394.70
2018-12-02T08:16:19.691Z,98394.79
2018-12-02T08:18:53.072Z,98393.16
2018-12-02T08:21:26.070Z,98389.58
2018-12-02T08:23:59.724Z,98396.51
2018-12-02T08:26:33.759Z,98392.85
2018-12-02T08:29:09.172Z,98404.66
2018-12-02T08:31:42.168Z,98408.37
2018-12-02T08:34:15.454Z,98409.99
2018-12-02T08:36:50.584Z,98408.70
2018-12-02T08:39:23.788Z,98384.75
2018-12-02T08:41:59.463Z,98408.04
2018-12-02T08:44:34.961Z,98407.61
2018-12-02T08:47:08.849Z,98400.80
2018-12-02T08:49:43.101Z,98399.46
2018-12-02T08:52:20.326Z,98407.66
2018-12-02T08:54:54.016Z,98405.39
2018-12-02T08:57:28.005Z,98409.13
2018-12-02T09:00:01.660Z,98404.25
2018-12-02T09:02:38.293Z,98410.38
2018-12-02T09:05:14.315Z,98412.60
2018-12-02T09:07:47.582Z,98408.78
2018-12-02T09:10:35.914Z,98405.02
2018-12-02T09:13:12.464Z,98418.13
2018-12-02T09:15:47.138Z,98406.93
2018-12-02T09:18:21.449Z,98411.88
2018-12-02T09:20:56.078Z,98404.10
2018-12-02T09:23:30.078Z,98416.48
2018-12-02T09:26:03.694Z,98416.23
2018-12-02T09:28:36.577Z,98415.86
2018-12-02T09:31:09.633Z,98423.55
2018-12-02T09:33:47.422Z,98430.61
2018-12-02T09:36:23.609Z,98409.92
2018-12-02T09:38:59.139Z,98413.02
2018-12-02T09:41:37.013Z,98406.14
2018-12-02T09:44:26.921Z,98406.85
2018-12-02T09:47:00.302Z,98404.12
2018-12-02T09:49:34.362Z,98401.31
2018-12-02T09:52:08.705Z,98414.53
2018-12-02T09:54:50.376Z,98414.85
2018-12-02T09:57:29.851Z,98413.05
2018-12-02T10:00:21.836Z,98413.58
2018-12-02T10:02:55.990Z,98419.03
2018-12-02T10:05:50.831Z,98414.70
2018-12-02T10:08:29.203Z,98421.90
2018-12-02T10:11:09.141Z,98423.39
2018-12-02T10:13:47.376Z,98419.28
2018-12-02T10:16:25.405Z,98428.91
2018-12-02T10:19:19.680Z,98424.18
2018-12-02T10:22:08.098Z,98426.33
2018-12-02T10:24:42.557Z,98418.23
2018-12-02T10:27:17.357Z,98421.08
2018-12-02T10:29:51.069Z,98419.20
2018-12-02T10:32:25.087Z,98406.00
2018-12-02T10:34:58.717Z,98407.76
2018-12-02T10:37:31.808Z,98404.69
2018-12-02T10:40:16.449Z,98413.50
2018-12-02T10:42:50.843Z,98410.09
2018-12-02T10:45:28.337Z,98403.84
2018-12-02T10:48:04.471Z,98406.23
2018-12-02T10:50:41.921Z,98398.06
2018-12-02T10:53:21.912Z,98399.46
2018-12-02T10:56:01.574Z,98401.09
2018-12-02T11:00:03.367Z,98398.78
2018-12-02T11:02:46.511Z,98394.81
2018-12-02T11:05:21.347Z,98392.13
2018-12-02T11:07:57.402Z,98392.70
2018-12-02T11:10:33.846Z,98392.28
2018-12-02T11:13:15.309Z,98393.66
2018-12-02T11:15:51.849Z,98391.94
2018-12-02T11:18:29.390Z,98393.41
2018-12-02T11:21:06.183Z,98391.30
2018-12-02T11:23:41.238Z,98390.63
2018-12-02T11:26:15.745Z,98390.43
2018-12-02T11:28:49.865Z,98396.66
2018-12-02T11:31:25.564Z,98399.31
2018-12-02T11:33:59.721Z,98393.64
2018-12-02T11:36:34.479Z,98397.77
2018-12-02T11:39:10.644Z,98395.99
2018-12-02T11:41:43.865Z,98400.33
2018-12-02T11:44:18.357Z,98396.31
2018-12-02T11:46:53.613Z,98399.04
2018-12-02T11:49:33.126Z,98393.57
2018-12-02T11:52:06.266Z,98405.78
2018-12-02T11:54:41.849Z,98402.48
2018-12-02T11:57:18.980Z,98400.39
2018-12-02T11:59:53.261Z,98397.68
2018-12-02T12:02:28.825Z,98401.88
2018-12-02T12:05:02.746Z,98404.68
2018-12-02T12:07:38.466Z,98409.20
2018-12-02T12:10:17.115Z,98419.86
2018-12-02T12:12:51.770Z,98413.97
2018-12-02T12:15:28.932Z,98415.80
2018-12-02T12:18:02.872Z,98416.46
2018-12-02T12:20:41.854Z,98413.91
2018-12-02T12:23:22.509Z,98427.09
2018-12-02T12:25:57.613Z,98429.86
2018-12-02T12:28:30.604Z,98429.36
2018-12-02T12:31:05.186Z,98437.83
2018-12-02T12:33:38.353Z,98432.14
2018-12-02T12:36:11.794Z,98430.05
2018-12-02T12:38:48.527Z,98430.33
2018-12-02T12:41:21.765Z,98438.00
2018-12-02T12:43:56.251Z,98441.62
2018-12-02T12:46:30.916Z,98429.47
2018-12-02T12:49:04.149Z,98440.57
2018-12-02T12:51:39.815Z,98438.64
2018-12-02T12:54:18.562Z,98441.27
2018-12-02T12:56:56.844Z,98440.73
2018-12-02T12:59:31.244Z,98446.11
2018-12-02T13:02:04.720Z,98444.70
2018-12-02T13:04:37.746Z,98446.58
2018-12-02T13:07:12.823Z,98446.39
2018-12-02T13:09:48.651Z,98451.11
2018-12-02T13:12:22.403Z,98452.36
2018-12-02T13:14:57.820Z,98452.33
2018-12-02T13:17:32.925Z,98446.84
2018-12-02T13:20:15.944Z,98456.86
2018-12-02T13:22:49.220Z,98460.56
2018-12-02T13:25:23.244Z,98461.20
2018-12-02T13:27:58.511Z,98465.02
2018-12-02T13:30:38.366Z,98465.39
2018-12-02T13:33:13.311Z,98469.48
2018-12-02T13:35:47.782Z,98464.49
2018-12-02T13:38:22.727Z,98461.78
2018-12-02T13:40:56.406Z,98464.70
2018-12-02T13:43:34.769Z,98465.56
2018-12-02T13:46:08.860Z,98466.61
2018-12-02T13:48:42.991Z,98468.83
2018-12-02T13:51:18.659Z,98478.19
2018-12-02T13:54:00.801Z,98482.79
2018-12-02T13:56:34.859Z,98485.38
2018-12-02T13:59:12.557Z,98480.64
2018-12-02T14:01:50.186Z,98479.40
2018-12-02T14:04:25.281Z,98487.42
2018-12-02T14:06:59.058Z,98495.75
2018-12-02T14:09:39.313Z,98496.88
2018-12-02T14:12:15.540Z,98505.42
2018-12-02T14:14:55.251Z,98516.30
2018-12-02T14:17:31.781Z,98508.58
2018-12-02T14:20:15.267Z,98512.95
2018-12-02T14:22:53.495Z,98523.25
2018-12-02T14:25:30.089Z,98520.52
2018-12-02T14:28:07.709Z,98530.65
2018-12-02T14:30:55.771Z,98528.16
2018-12-02T14:33:41.091Z,98533.95
2018-12-02T14:36:20.476Z,98530.77
2018-12-02T14:38:54.825Z,98536.04
2018-12-02T14:41:30.886Z,98536.47
2018-12-02T14:44:11.306Z,98526.22
2018-12-02T14:46:44.611Z,98536.92
2018-12-02T14:49:18.612Z,98533.88
2018-12-02T14:51:53.151Z,98536.93
2018-12-02T14:54:26.146Z,98539.88
2018-12-02T14:57:00.152Z,98540.15
2018-12-02T14:59:39.793Z,98542.80
2018-12-02T15:02:18.649Z,98543.34
2018-12-02T15:04:55.882Z,98548.27
2018-12-02T15:07:33.286Z,98545.34
2018-12-02T15:10:12.205Z,98542.03
2018-12-02T15:12:47.058Z,98548.23
2018-12-02T15:15:20.515Z,98553.30
2018-12-02T15:17:56.639Z,98556.73
2018-12-02T15:20:30.661Z,98564.48
2018-12-02T15:23:05.016Z,98562.13
2018-12-02T15:25:40.131Z,98562.84
2018-12-02T15:28:13.815Z,98566.63
2018-12-02T15:30:48.857Z,98569.41
2018-12-02T15:33:24.452Z,98565.56
2018-12-02T15:36:05.167Z,98566.13
2018-12-02T15:38:40.253Z,98565.20
2018-12-02T15:41:14.740Z,98571.23
2018-12-02T15:43:48.624Z,98568.55
2018-12-02T15:46:23.816Z,98569.83
2018-12-02T15:49:00.698Z,98573.82
2018-12-02T15:51:36.004Z,98578.50
2018-12-02T15:54:11.377Z,98576.68
2018-12-02T15:56:48.777Z,98577.55
2018-12-02T15:59:25.888Z,98577.33
2018-12-02T16:02:01.713Z,98578.83
2018-12-02T16:04:36.730Z,98582.76
2018-12-02T16:07:12.486Z,98576.00
2018-12-02T16:09:49.395Z,98577.19
2018-12-02T16:12:22.859Z,98577.86
2018-12-02T16:14:56.697Z,98577.47
2018-12-02T16:17:31.502Z,98577.40
2018-12-02T16:20:13.165Z,98567.09
2018-12-02T16:22:49.293Z,98574.16
2018-12-02T16:25:25.777Z,98579.44
2018-12-02T16:28:01.372Z,98588.94
2018-12-02T16:30:37.990Z,98580.14
2018-12-02T16:33:12.963Z,98582.36
2018-12-02T16:35:48.305Z,98587.48
2018-12-02T16:38:22.524Z,98582.59
2018-12-02T16:40:56.060Z,98586.74
2018-12-02T16:43:30.068Z,98587.00
2018-12-02T16:46:03.158Z,98579.50
2018-12-02T16:48:39.812Z,98576.83
2018-12-02T16:51:14.023Z,98578.78
2018-12-02T16:53:50.661Z,98580.98
2018-12-02T16:56:23.874Z,98579.83
2018-12-02T16:59:19.446Z,98581.50
2018-12-02T17:02:04.921Z,98580.40
2018-12-02T17:04:42.591Z,98581.66
2018-12-02T17:07:16.144Z,98579.28
2018-12-02T17:09:50.765Z,98578.47
2018-12-02T17:12:25.537Z,98578.61
2018-12-02T17:14:59.777Z,98582.23
2018-12-02T17:17:34.831Z,98578.55
2018-12-02T17:20:15.648Z,98587.46
2018-12-02T17:22:49.596Z,98585.36
2018-12-02T17:25:25.602Z,98583.09
2018-12-02T17:28:01.864Z,98583.19
2018-12-02T17:30:52.953Z,98581.71
2018-12-02T17:33:30.104Z,98593.84
2018-12-02T17:36:05.584Z,98589.77
2018-12-02T17:38:39.586Z,98588.93
2018-12-02T17:41:18.372Z,98594.30
2018-12-02T17:43:54.738Z,98592.23
2018-12-02T17:46:30.357Z,98595.84
2018-12-02T17:49:08.175Z,98598.91
2018-12-02T17:51:42.172Z,98595.12
2018-12-02T17:54:15.320Z,98601.09
2018-12-02T17:56:51.762Z,98599.97
2018-12-02T17:59:24.727Z,98606.41
2018-12-02T18:02:04.061Z,98612.87
2018-12-02T18:04:41.130Z,98606.36
2018-12-02T18:07:14.295Z,98609.42
2018-12-02T18:09:49.432Z,98610.48
2018-12-02T18:12:24.406Z,98618.02
2018-12-02T18:14:58.426Z,98612.16
2018-12-02T18:17:36.217Z,98628.00
2018-12-02T18:20:16.109Z,98622.23
2018-12-02T18:22:52.642Z,98629.70
2018-12-02T18:25:27.153Z,98631.09
2018-12-02T18:28:00.501Z,98635.05
2018-12-02T18:30:41.438Z,98640.61
2018-12-02T18:33:18.447Z,98647.02
2018-12-02T18:36:04.721Z,98627.95
2018-12-02T18:38:41.986Z,98642.58
2018-12-02T18:41:39.519Z,98639.80
2018-12-02T18:44:17.087Z,98645.06
2018-12-02T18:46:50.590Z,98649.84
2018-12-02T18:49:26.202Z,98654.83
2018-12-02T18:52:03.458Z,98651.33
2018-12-02T18:54:37.306Z,98660.34
2018-12-02T18:57:10.562Z,98657.07
2018-12-02T18:59:44.456Z,98653.61
2018-12-02T19:02:19.410Z,98658.05
2018-12-02T19:04:52.920Z,98650.30
2018-12-02T19:07:26.719Z,98658.63
2018-12-02T19:10:00.691Z,98656.64
2018-12-02T19:12:35.957Z,98662.27
2018-12-02T19:15:16.279Z,98660.81
2018-12-02T19:17:51.689Z,98660.64
2018-12-02T19:20:30.134Z,98665.59
2018-12-02T19:23:08.165Z,98660.78
2018-12-02T19:25:44.071Z,98667.11
2018-12-02T19:28:18.045Z,98652.94
2018-12-02T19:30:52.726Z,98653.61
2018-12-02T19:33:29.763Z,98652.72
2018-12-02T19:36:36.002Z,98649.11
2018-12-02T19:39:16.262Z,98644.10
2018-12-02T19:41:54.646Z,98645.55
2018-12-02T19:44:38.109Z,98646.75
2018-12-02T19:47:14.450Z,98650.88
2018-12-02T19:49:49.897Z,98654.26
2018-12-02T19:52:23.974Z,98646.68
2018-12-02T19:55:04.453Z,98645.84
2018-12-02T19:57:41.744Z,98636.69
2018-12-02T20:00:26.024Z,98634.69
2018-12-02T20:03:14.680Z,98635.42
2018-12-02T20:06:00.284Z,98637.19
2018-12-02T20:08:35.802Z,98632.80
2018-12-02T20:11:15.294Z,98634.22
2018-12-02T20:13:51.927Z,98627.28
2018-12-02T20:16:27.678Z,98628.35
2018-12-02T20:19:13.686Z,98623.75
2018-12-02T20:21:58.243Z,98622.22
2018-12-02T20:24:43.772Z,98621.58
2018-12-02T20:27:20.815Z,98625.84
2018-12-02T20:30:00.773Z,98626.95
2018-12-02T20:32:47.905Z,98625.94
2018-12-02T20:35:24.091Z,98629.80
2018-12-02T20:37:58.815Z,98631.64
2018-12-02T20:40:37.513Z,98626.06
2018-12-02T20:43:13.650Z,98626.97
2018-12-02T20:45:49.493Z,98622.48
2018-12-02T20:48:25.573Z,98621.48
2018-12-02T20:50:59.334Z,98618.41
2018-12-02T20:53:32.951Z,98614.45
2018-12-02T20:56:09.351Z,98610.82
2018-12-02T20:58:59.085Z,98603.81
2018-12-02T21:01:33.869Z,98605.04
2018-12-02T21:04:14.852Z,98604.60
2018-12-02T21:06:52.542Z,98599.84
2018-12-02T21:09:25.734Z,98604.32
2018-12-02T21:12:01.190Z,98597.58
2018-12-02T21:14:37.513Z,98607.41
2018-12-02T21:17:11.542Z,98598.02
2018-12-02T21:19:48.896Z,98598.11
2018-12-02T21:22:22.036Z,98601.69
2018-12-02T21:24:55.979Z,98595.52
2018-12-02T21:27:30.258Z,98593.25
2018-12-02T21:30:05.082Z,98599.47
2018-12-02T21:32:41.342Z,98596.66
2018-12-02T21:35:16.340Z,98595.16
2018-12-02T21:37:51.584Z,98591.28
2018-12-02T21:40:24.770Z,98586.88
2018-12-02T21:42:58.417Z,98587.03
2018-12-02T21:45:32.581Z,98583.34
2018-12-02T21:48:10.254Z,98584.27
2018-12-02T21:50:45.359Z,98580.77
2018-12-02T21:53:18.538Z,98578.25
2018-12-02T21:55:52.158Z,98573.13
2018-12-02T21:58:25.301Z,98572.73
2018-12-02T22:01:05.072Z,98564.41
2018-12-02T22:03:40.096Z,98568.55
2018-12-02T22:06:13.204Z,98571.47
2018-12-02T22:08:46.529Z,98566.65
2018-12-02T22:11:21.728Z,98566.16
2018-12-02T22:13:56.192Z,98568.98
2018-12-02T22:16:30.359Z,98564.67
2018-12-02T22:19:05.334Z,98561.98
2018-12-02T22:21:40.339Z,98564.77
2018-12-02T22:24:17.594Z,98564.25
2018-12-02T22:26:53.664Z,98564.88
2018-12-02T22:29:30.273Z,98569.12
2018-12-02T22:32:05.100Z,98572.19
2018-12-02T22:34:38.327Z,98572.83
2018-12-02T22:37:11.410Z,98572.92
2018-12-02T22:39:45.249Z,98578.52
2018-12-02T22:42:18.406Z,98575.62
2018-12-02T22:44:53.442Z,98573.92
2018-12-02T22:47:27.011Z,98569.48
2018-12-02T22:50:00.078Z,98566.80
2018-12-02T22:52:33.221Z,98562.88
2018-12-02T22:55:09.439Z,98564.45
2018-12-02T22:57:43.377Z,98562.42
2018-12-02T23:00:38.579Z,98566.76
2018-12-02T23:03:16.186Z,98564.21
2018-12-02T23:05:49.724Z,98569.72
2018-12-02T23:08:31.059Z,98570.27
2018-12-02T23:11:04.314Z,98565.27
2018-12-02T23:13:38.392Z,98572.83
2018-12-02T23:16:11.971Z,98566.83
2018-12-02T23:18:45.729Z,98567.76
2018-12-02T23:21:18.767Z,98573.44
2018-12-02T23:23:53.330Z,98570.48
2018-12-02T23:26:27.357Z,98564.33
2018-12-02T23:29:00.969Z,98565.83
2018-12-02T23:31:36.284Z,98564.73
2018-12-02T23:34:09.565Z,98564.39
2018-12-02T23:36:43.787Z,98561.37
2018-12-02T23:39:18.283Z,98561.92
2018-12-02T23:41:51.201Z,98558.94
2018-12-02T23:44:24.323Z,98542.08
2018-12-02T23:46:57.947Z,98540.86
2018-12-02T23:49:30.943Z,98539.94
2018-12-02T23:52:04.868Z,98538.59
2018-12-02T23:54:38.640Z,98539.91
2018-12-02T23:57:11.530Z,98546.05
2018-12-02T23:59:44.552Z,98551.48
